createdAt,value
2019-01-15T00:00:49.201Z,12.50
2019-01-15T00:01:49.187Z,11.20
2019-01-15T00:02:49.177Z,11.90
2019-01-15T00:03:49.165Z,10.40
2019-01-15T00:04:49.156Z,10.80
2019-01-15T00:05:49.146Z,13.10
2019-01-15T00:06:49.130Z,13.10
2019-01-15T00:07:49.117Z,10.60
2019-01-15T00:08:49.109Z,10.50
2019-01-15T00:09:49.094Z,12.60
2019-01-15T00:10:49.098Z,11.50
2019-01-15T00:11:49.072Z,11.10
2019-01-15T00:12:49.060Z,11.50
2019-01-15T00:13:49.047Z,10.20
2019-01-15T00:14:49.036Z,14.00
2019-01-15T00:15:49.025Z,13.00
2019-01-15T00:16:49.016Z,16.00
2019-01-15T00:17:49.001Z,13.40
2019-01-15T00:18:48.992Z,13.30
2019-01-15T00:19:48.977Z,13.00
2019-01-15T00:20:48.967Z,10.00
2019-01-15T00:21:48.958Z,14.20
2019-01-15T00:22:48.946Z,14.20
2019-01-15T00:23:48.933Z,13.20
2019-01-15T00:24:48.973Z,11.40
2019-01-15T00:25:48.911Z,11.30
2019-01-15T00:26:48.898Z,12.50
2019-01-15T00:27:48.888Z,14.70
2019-01-15T00:28:48.878Z,12.00
2019-01-15T00:29:48.864Z,12.50
2019-01-15T00:30:48.854Z,13.80
2019-01-15T00:31:48.845Z,14.10
2019-01-15T00:32:48.832Z,12.90
2019-01-15T00:33:48.819Z,13.80
2019-01-15T00:34:48.814Z,10.60
2019-01-15T00:35:48.797Z,14.50
2019-01-15T00:36:48.786Z,14.40
2019-01-15T00:37:48.774Z,13.80
2019-01-15T00:38:48.761Z,15.00
2019-01-15T00:39:48.749Z,13.60
2019-01-15T00:40:48.742Z,16.30
2019-01-15T00:41:48.728Z,12.20
2019-01-15T00:42:48.727Z,14.70
2019-01-15T00:43:48.714Z,11.50
2019-01-15T00:44:48.693Z,17.40
2019-01-15T00:45:48.679Z,13.80
2019-01-15T00:46:48.671Z,11.70
2019-01-15T00:47:48.660Z,15.00
2019-01-15T00:48:48.650Z,12.30
2019-01-15T00:49:48.636Z,13.90
2019-01-15T00:50:48.627Z,17.70
2019-01-15T00:51:48.614Z,15.40
2019-01-15T00:52:48.604Z,12.80
2019-01-15T00:53:48.591Z,15.20
2019-01-15T00:54:48.580Z,13.60
2019-01-15T00:55:48.571Z,13.80
2019-01-15T00:56:48.561Z,14.60
2019-01-15T00:57:48.546Z,11.90
2019-01-15T00:58:48.534Z,16.50
2019-01-15T00:59:48.522Z,14.50
2019-01-15T01:00:48.513Z,14.70
2019-01-15T01:01:48.500Z,14.60
2019-01-15T01:02:48.492Z,13.70
2019-01-15T01:03:48.479Z,12.20
2019-01-15T01:04:48.467Z,13.70
2019-01-15T01:05:48.455Z,11.20
2019-01-15T01:06:48.446Z,17.50
2019-01-15T01:07:48.431Z,15.30
2019-01-15T01:08:48.421Z,12.10
2019-01-15T01:09:48.412Z,15.90
2019-01-15T01:10:48.397Z,16.70
2019-01-15T01:11:48.387Z,16.60
2019-01-15T01:12:48.376Z,15.70
2019-01-15T01:13:48.368Z,17.80
2019-01-15T01:14:48.353Z,13.40
2019-01-15T01:15:48.344Z,15.10
2019-01-15T01:16:48.330Z,16.30
2019-01-15T01:17:48.317Z,15.90
2019-01-15T01:18:48.304Z,12.70
2019-01-15T01:19:48.297Z,14.50
2019-01-15T01:20:48.285Z,16.60
2019-01-15T01:21:48.272Z,13.60
2019-01-15T01:22:48.261Z,15.90
2019-01-15T01:23:48.252Z,14.50
2019-01-15T01:24:48.242Z,14.20
2019-01-15T01:25:48.228Z,12.60
2019-01-15T01:26:48.216Z,17.00
2019-01-15T01:27:48.205Z,17.90
2019-01-15T01:28:48.193Z,15.40
2019-01-15T01:29:48.184Z,15.60
2019-01-15T01:30:48.176Z,14.50
2019-01-15T01:31:48.159Z,15.30
2019-01-15T01:32:48.149Z,14.50
2019-01-15T01:33:48.137Z,15.60
2019-01-15T01:34:48.127Z,16.70
2019-01-15T01:35:48.115Z,13.30
2019-01-15T01:36:48.104Z,16.40
2019-01-15T01:37:48.091Z,13.80
2019-01-15T01:38:48.082Z,14.00
2019-01-15T01:39:48.070Z,12.20
2019-01-15T01:40:48.058Z,12.80
2019-01-15T01:41:48.048Z,13.30
2019-01-15T01:42:48.037Z,15.50
2019-01-15T01:43:48.023Z,15.40
2019-01-15T01:44:48.016Z,16.60
2019-01-15T01:45:48.001Z,15.00
2019-01-15T01:46:47.989Z,14.00
2019-01-15T01:47:47.979Z,12.70
2019-01-15T01:48:47.975Z,13.40
2019-01-15T01:49:47.956Z,14.40
2019-01-15T01:50:47.943Z,14.40
2019-01-15T01:51:47.934Z,13.20
2019-01-15T01:52:47.922Z,20.90
2019-01-15T01:53:47.911Z,12.00
2019-01-15T01:54:47.903Z,17.70
2019-01-15T01:55:47.893Z,15.30
2019-01-15T01:56:47.877Z,14.80
2019-01-15T01:57:47.867Z,14.40
2019-01-15T01:58:47.854Z,15.70
2019-01-15T01:59:47.847Z,18.40
2019-01-15T02:00:47.834Z,16.70
2019-01-15T02:01:47.822Z,14.80
2019-01-15T02:02:47.811Z,16.60
2019-01-15T02:03:47.800Z,15.70
2019-01-15T02:04:47.791Z,16.30
2019-01-15T02:05:47.776Z,14.70
2019-01-15T02:06:47.763Z,13.50
2019-01-15T02:07:47.752Z,13.00
2019-01-15T02:08:47.741Z,15.60
2019-01-15T02:09:47.730Z,16.20
2019-01-15T02:10:47.721Z,16.70
2019-01-15T02:11:47.710Z,17.00
2019-01-15T02:12:47.705Z,15.00
2019-01-15T02:13:47.687Z,16.90
2019-01-15T02:14:47.673Z,17.10
2019-01-15T02:15:47.665Z,16.70
2019-01-15T02:16:47.651Z,15.60
2019-01-15T02:17:47.641Z,13.60
2019-01-15T02:18:47.629Z,14.90
2019-01-15T02:19:47.621Z,17.00
2019-01-15T02:20:47.606Z,13.90
2019-01-15T02:21:47.595Z,13.80
2019-01-15T02:22:47.583Z,15.00
2019-01-15T02:23:47.573Z,15.10
2019-01-15T02:24:47.561Z,15.60
2019-01-15T02:25:47.555Z,17.30
2019-01-15T02:26:47.538Z,14.10
2019-01-15T02:27:47.529Z,13.90
2019-01-15T02:28:47.518Z,15.10
2019-01-15T02:29:47.504Z,17.60
2019-01-15T02:30:47.494Z,14.60
2019-01-15T02:31:47.490Z,13.80
2019-01-15T02:32:47.474Z,15.40
2019-01-15T02:33:47.467Z,19.60
2019-01-15T02:34:47.449Z,16.90
2019-01-15T02:35:47.438Z,15.90
2019-01-15T02:36:47.428Z,14.30
2019-01-15T02:37:47.417Z,14.90
2019-01-15T02:38:47.405Z,15.00
2019-01-15T02:39:47.394Z,13.40
2019-01-15T02:40:47.384Z,14.50
2019-01-15T02:41:47.374Z,16.90
2019-01-15T02:42:47.451Z,15.40
2019-01-15T02:43:47.353Z,17.20
2019-01-15T02:44:47.340Z,16.10
2019-01-15T02:45:47.327Z,15.70
2019-01-15T02:46:47.319Z,15.20
2019-01-15T02:47:47.306Z,15.80
2019-01-15T02:48:47.296Z,17.70
2019-01-15T02:49:47.296Z,14.60
2019-01-15T02:50:47.275Z,13.70
2019-01-15T02:51:47.262Z,15.40
2019-01-15T02:52:47.250Z,17.60
2019-01-15T02:53:47.237Z,18.50
2019-01-15T02:54:47.227Z,15.50
2019-01-15T02:55:47.218Z,17.10
2019-01-15T02:56:47.212Z,16.00
2019-01-15T02:57:47.199Z,16.40
2019-01-15T02:58:47.184Z,14.80
2019-01-15T02:59:47.172Z,15.40
2019-01-15T03:00:47.162Z,19.10
2019-01-15T03:01:47.155Z,15.20
2019-01-15T03:02:47.142Z,16.50
2019-01-15T03:03:47.128Z,18.40
2019-01-15T03:04:47.119Z,13.30
2019-01-15T03:05:47.109Z,15.50
2019-01-15T03:06:47.096Z,15.40
2019-01-15T03:07:47.084Z,14.40
2019-01-15T03:08:47.074Z,13.60
2019-01-15T03:09:47.064Z,15.00
2019-01-15T03:10:47.051Z,18.10
2019-01-15T03:11:47.042Z,13.50
2019-01-15T03:12:54.491Z,17.30
2019-01-15T03:13:47.016Z,14.90
2019-01-15T03:14:47.002Z,14.60
2019-01-15T03:15:46.994Z,14.80
2019-01-15T03:16:46.982Z,14.90
2019-01-15T03:17:46.969Z,16.60
2019-01-15T03:18:47.785Z,17.70
2019-01-15T03:19:46.948Z,15.20
2019-01-15T03:20:46.936Z,15.60
2019-01-15T03:21:46.924Z,16.10
2019-01-15T03:22:46.912Z,18.50
2019-01-15T03:23:46.902Z,13.50
2019-01-15T03:24:46.892Z,15.50
2019-01-15T03:25:46.883Z,18.00
2019-01-15T03:26:46.868Z,16.20
2019-01-15T03:27:46.859Z,17.70
2019-01-15T03:28:46.846Z,14.50
2019-01-15T03:29:46.834Z,19.00
2019-01-15T03:30:46.832Z,16.20
2019-01-15T03:31:46.813Z,14.80
2019-01-15T03:32:46.810Z,17.40
2019-01-15T03:33:46.789Z,14.30
2019-01-15T03:34:46.778Z,15.80
2019-01-15T03:35:46.765Z,15.60
2019-01-15T03:36:46.756Z,16.30
2019-01-15T03:37:46.744Z,16.80
2019-01-15T03:38:46.730Z,18.10
2019-01-15T03:39:46.723Z,17.30
2019-01-15T03:40:46.717Z,16.60
2019-01-15T03:41:46.697Z,18.60
2019-01-15T03:42:46.686Z,19.20
2019-01-15T03:43:46.676Z,14.00
2019-01-15T03:44:46.666Z,16.50
2019-01-15T03:45:46.653Z,17.30
2019-01-15T03:46:46.640Z,17.30
2019-01-15T03:47:46.633Z,19.30
2019-01-15T03:48:46.619Z,16.00
2019-01-15T03:49:46.606Z,15.00
2019-01-15T03:50:46.598Z,15.20
2019-01-15T03:51:46.585Z,15.40
2019-01-15T03:52:46.574Z,14.60
2019-01-15T03:53:46.561Z,13.90
2019-01-15T03:54:46.552Z,18.80
2019-01-15T03:55:46.540Z,18.50
2019-01-15T03:56:46.529Z,16.40
2019-01-15T03:57:46.516Z,17.00
2019-01-15T03:58:46.505Z,14.70
2019-01-15T03:59:46.494Z,18.80
2019-01-15T04:00:46.486Z,19.80
2019-01-15T04:01:46.470Z,13.60
2019-01-15T04:02:46.467Z,14.10
2019-01-15T04:03:46.447Z,14.70
2019-01-15T04:04:46.437Z,16.20
2019-01-15T04:05:46.449Z,15.60
2019-01-15T04:06:46.416Z,16.80
2019-01-15T04:07:46.403Z,13.90
2019-01-15T04:08:46.393Z,17.90
2019-01-15T04:09:46.384Z,17.20
2019-01-15T04:10:46.371Z,15.30
2019-01-15T04:11:46.360Z,17.20
2019-01-15T04:12:46.344Z,13.10
2019-01-15T04:13:46.338Z,20.00
2019-01-15T04:14:46.329Z,16.40
2019-01-15T04:15:46.314Z,13.80
2019-01-15T04:16:46.302Z,16.10
2019-01-15T04:17:46.295Z,13.90
2019-01-15T04:18:46.280Z,18.20
2019-01-15T04:19:46.271Z,13.50
2019-01-15T04:20:46.258Z,16.20
2019-01-15T04:21:46.251Z,15.90
2019-01-15T04:22:46.238Z,15.40
2019-01-15T04:23:46.230Z,18.30
2019-01-15T04:24:46.215Z,16.10
2019-01-15T04:25:46.208Z,17.30
2019-01-15T04:26:46.187Z,15.50
2019-01-15T04:27:46.185Z,16.60
2019-01-15T04:28:46.175Z,17.50
2019-01-15T04:29:46.158Z,17.70
2019-01-15T04:30:46.145Z,16.10
2019-01-15T04:31:46.136Z,15.40
2019-01-15T04:32:46.123Z,18.70
2019-01-15T04:33:46.112Z,16.50
2019-01-15T04:34:46.104Z,14.70
2019-01-15T04:35:46.091Z,14.10
2019-01-15T04:36:46.083Z,16.00
2019-01-15T04:37:46.066Z,17.90
2019-01-15T04:38:46.057Z,14.50
2019-01-15T04:39:46.046Z,17.00
2019-01-15T04:40:46.034Z,14.50
2019-01-15T04:41:46.026Z,17.10
2019-01-15T04:42:46.012Z,16.80
2019-01-15T04:43:46.001Z,18.20
2019-01-15T04:44:46.000Z,17.10
2019-01-15T04:45:45.978Z,15.90
2019-01-15T04:46:45.970Z,18.40
2019-01-15T04:47:45.958Z,15.70
2019-01-15T04:48:45.944Z,19.20
2019-01-15T04:49:45.934Z,18.50
2019-01-15T04:50:45.923Z,15.20
2019-01-15T04:51:45.911Z,15.20
2019-01-15T04:52:45.899Z,14.50
2019-01-15T04:53:45.896Z,17.20
2019-01-15T04:54:45.878Z,18.50
2019-01-15T04:55:45.869Z,16.90
2019-01-15T04:56:45.857Z,15.30
2019-01-15T04:57:45.845Z,17.70
2019-01-15T04:58:46.439Z,14.70
2019-01-15T04:59:45.823Z,15.50
2019-01-15T05:00:45.814Z,16.80
2019-01-15T05:01:45.803Z,17.20
2019-01-15T05:02:45.791Z,17.30
2019-01-15T05:03:45.782Z,19.00
2019-01-15T05:04:45.770Z,17.70
2019-01-15T05:05:45.756Z,16.30
2019-01-15T05:06:45.747Z,17.00
2019-01-15T05:07:45.738Z,17.60
2019-01-15T05:08:45.726Z,18.30
2019-01-15T05:09:45.713Z,19.10
2019-01-15T05:10:45.704Z,15.70
2019-01-15T05:11:45.692Z,14.30
2019-01-15T05:12:45.685Z,18.80
2019-01-15T05:13:45.674Z,16.30
2019-01-15T05:14:45.660Z,15.30
2019-01-15T05:15:45.651Z,16.20
2019-01-15T05:16:45.640Z,17.20
2019-01-15T05:17:45.639Z,19.40
2019-01-15T05:18:45.615Z,16.10
2019-01-15T05:19:45.615Z,17.40
2019-01-15T05:20:45.613Z,15.80
2019-01-15T05:21:45.586Z,16.50
2019-01-15T05:22:45.574Z,16.90
2019-01-15T05:23:45.569Z,17.90
2019-01-15T05:24:45.552Z,18.70
2019-01-15T05:25:45.542Z,17.30
2019-01-15T05:26:45.527Z,15.50
2019-01-15T05:27:45.520Z,14.90
2019-01-15T05:28:45.508Z,18.10
2019-01-15T05:29:45.501Z,16.30
2019-01-15T05:30:45.487Z,17.20
2019-01-15T05:31:45.481Z,16.70
2019-01-15T05:32:45.468Z,11.80
2019-01-15T05:33:45.455Z,15.40
2019-01-15T05:34:45.446Z,16.10
2019-01-15T05:35:45.435Z,17.30
2019-01-15T05:36:45.429Z,16.50
2019-01-15T05:37:45.415Z,15.80
2019-01-15T05:38:45.407Z,17.70
2019-01-15T05:39:45.396Z,14.70
2019-01-15T05:40:45.383Z,15.70
2019-01-15T05:41:45.371Z,15.50
2019-01-15T05:42:45.360Z,13.70
2019-01-15T05:43:45.351Z,14.10
2019-01-15T05:44:45.339Z,19.10
2019-01-15T05:45:45.328Z,15.20
2019-01-15T05:46:45.317Z,13.00
2019-01-15T05:47:45.313Z,16.00
2019-01-15T05:48:45.299Z,16.00
2019-01-15T05:49:45.284Z,15.00
2019-01-15T05:50:45.278Z,13.20
2019-01-15T05:51:45.263Z,11.80
2019-01-15T05:52:45.267Z,15.70
2019-01-15T05:53:45.241Z,14.40
2019-01-15T05:54:45.235Z,14.00
2019-01-15T05:55:45.220Z,15.70
2019-01-15T05:56:45.210Z,13.50
2019-01-15T05:57:45.199Z,15.50
2019-01-15T05:58:45.189Z,14.10
2019-01-15T05:59:45.179Z,15.30
2019-01-15T06:00:45.171Z,13.90
2019-01-15T06:01:45.159Z,12.40
2019-01-15T06:02:45.143Z,15.20
2019-01-15T06:03:45.135Z,13.20
2019-01-15T06:04:45.128Z,12.80
2019-01-15T06:05:45.113Z,13.20
2019-01-15T06:06:45.108Z,13.30
2019-01-15T06:07:45.098Z,9.90
2019-01-15T06:08:45.081Z,10.80
2019-01-15T06:09:45.071Z,12.50
2019-01-15T06:10:45.061Z,9.50
2019-01-15T06:11:45.050Z,13.90
2019-01-15T06:12:45.039Z,11.60
2019-01-15T06:13:45.031Z,15.20
2019-01-15T06:14:45.014Z,14.00
2019-01-15T06:15:45.007Z,11.30
2019-01-15T06:16:45.005Z,10.10
2019-01-15T06:17:44.989Z,11.60
2019-01-15T06:18:44.976Z,13.00
2019-01-15T06:19:44.967Z,12.10
2019-01-15T06:20:44.955Z,13.20
2019-01-15T06:21:44.943Z,14.50
2019-01-15T06:22:44.935Z,12.10
2019-01-15T06:23:44.925Z,12.80
2019-01-15T06:24:44.920Z,12.90
2019-01-15T06:25:44.901Z,13.00
2019-01-15T06:26:44.893Z,13.10
2019-01-15T06:27:44.880Z,12.30
2019-01-15T06:28:44.871Z,10.30
2019-01-15T06:29:44.857Z,11.40
2019-01-15T06:30:44.847Z,13.40
2019-01-15T06:31:44.878Z,13.00
2019-01-15T06:32:44.823Z,11.10
2019-01-15T06:33:44.818Z,11.20
2019-01-15T06:34:44.804Z,12.50
2019-01-15T06:35:44.796Z,13.20
2019-01-15T06:36:44.785Z,11.90
2019-01-15T06:37:44.773Z,11.40
2019-01-15T06:38:44.773Z,10.20
2019-01-15T06:39:44.756Z,12.80
2019-01-15T06:40:44.743Z,13.80
2019-01-15T06:41:44.736Z,11.00
2019-01-15T06:42:44.723Z,10.90
2019-01-15T06:43:49.980Z,13.20
2019-01-15T06:44:44.703Z,9.40
2019-01-15T06:45:44.690Z,10.60
2019-01-15T06:46:44.681Z,8.90
2019-01-15T06:47:44.672Z,11.90
2019-01-15T06:48:44.658Z,13.70
2019-01-15T06:49:44.651Z,11.90
2019-01-15T06:50:44.635Z,11.90
2019-01-15T06:51:44.627Z,12.70
2019-01-15T06:52:44.620Z,10.30
2019-01-15T06:53:44.603Z,13.90
2019-01-15T06:54:44.621Z,12.40
2019-01-15T06:55:44.580Z,11.00
2019-01-15T06:56:44.573Z,12.20
2019-01-15T06:57:44.572Z,11.90
2019-01-15T06:58:44.560Z,11.60
2019-01-15T06:59:44.548Z,14.00
2019-01-15T07:00:44.538Z,9.20
2019-01-15T07:01:44.522Z,12.00
2019-01-15T07:02:44.518Z,10.70
2019-01-15T07:03:44.503Z,13.60
2019-01-15T07:04:44.493Z,10.40
2019-01-15T07:05:44.487Z,9.30
2019-01-15T07:06:44.472Z,11.60
2019-01-15T07:07:44.466Z,10.80
2019-01-15T07:08:44.449Z,9.60
2019-01-15T07:09:44.441Z,10.30
2019-01-15T07:10:44.795Z,11.50
2019-01-15T07:11:44.424Z,13.30
2019-01-15T07:12:44.408Z,11.50
2019-01-15T07:13:44.402Z,13.00
2019-01-15T07:14:44.388Z,9.30
2019-01-15T07:15:44.379Z,11.70
2019-01-15T07:16:44.366Z,12.70
2019-01-15T07:17:44.393Z,12.60
2019-01-15T07:18:44.348Z,9.70
2019-01-15T07:19:44.337Z,11.70
2019-01-15T07:20:44.323Z,10.10
2019-01-15T07:21:44.314Z,11.30
2019-01-15T07:22:44.305Z,12.40
2019-01-15T07:23:44.296Z,9.30
2019-01-15T07:24:44.281Z,11.70
2019-01-15T07:25:44.275Z,14.20
2019-01-15T07:26:44.262Z,11.70
2019-01-15T07:27:44.254Z,12.40
2019-01-15T07:28:44.247Z,11.80
2019-01-15T07:29:44.232Z,8.60
2019-01-15T07:30:44.229Z,8.60
2019-01-15T07:31:44.215Z,11.40
2019-01-15T07:32:44.205Z,8.70
2019-01-15T07:33:44.196Z,9.70
2019-01-15T07:34:44.193Z,10.20
2019-01-15T07:35:44.170Z,12.30
2019-01-15T07:36:44.194Z,10.20
2019-01-15T07:37:44.155Z,8.40
2019-01-15T07:38:44.145Z,10.40
2019-01-15T07:39:44.132Z,11.40
2019-01-15T07:40:44.123Z,14.30
2019-01-15T07:41:44.113Z,8.80
2019-01-15T07:42:44.099Z,11.20
2019-01-15T07:43:44.090Z,11.30
2019-01-15T07:44:44.080Z,8.80
2019-01-15T07:45:44.073Z,10.10
2019-01-15T07:46:44.060Z,11.00
2019-01-15T07:47:44.054Z,9.40
2019-01-15T07:48:44.038Z,9.70
2019-01-15T07:49:44.029Z,9.80
2019-01-15T07:50:44.016Z,11.40
2019-01-15T07:51:44.008Z,11.00
2019-01-15T07:52:43.996Z,9.80
2019-01-15T07:53:43.986Z,8.40
2019-01-15T07:54:43.976Z,12.10
2019-01-15T07:55:43.966Z,9.70
2019-01-15T07:56:43.958Z,11.60
2019-01-15T07:57:43.947Z,7.00
2019-01-15T07:58:43.941Z,8.40
2019-01-15T07:59:43.931Z,8.70
2019-01-15T08:00:43.916Z,11.30
2019-01-15T08:01:43.908Z,10.70
2019-01-15T08:02:43.897Z,10.50
2019-01-15T08:03:43.883Z,8.30
2019-01-15T08:04:43.878Z,8.10
2019-01-15T08:05:43.867Z,9.60
2019-01-15T08:06:43.858Z,11.70
2019-01-15T08:07:43.845Z,10.40
2019-01-15T08:08:43.835Z,10.00
2019-01-15T08:09:43.825Z,10.00
2019-01-15T08:10:43.815Z,9.80
2019-01-15T08:11:43.805Z,9.40
2019-01-15T08:12:43.801Z,9.50
2019-01-15T08:13:43.783Z,8.60
2019-01-15T08:14:43.776Z,8.70
2019-01-15T08:15:43.763Z,8.40
2019-01-15T08:16:43.755Z,10.50
2019-01-15T08:17:43.744Z,9.50
2019-01-15T08:18:43.742Z,8.40
2019-01-15T08:19:43.724Z,9.00
2019-01-15T08:20:43.722Z,8.60
2019-01-15T08:21:43.704Z,8.20
2019-01-15T08:22:43.697Z,9.30
2019-01-15T08:23:43.692Z,10.70
2019-01-15T08:24:43.684Z,10.30
2019-01-15T08:25:43.661Z,11.60
2019-01-15T08:26:43.662Z,9.30
2019-01-15T08:27:43.642Z,7.90
2019-01-15T08:28:43.642Z,8.80
2019-01-15T08:29:43.624Z,10.90
2019-01-15T08:30:44.129Z,8.20
2019-01-15T08:31:43.604Z,8.10
2019-01-15T08:32:43.593Z,10.60
2019-01-15T08:33:43.583Z,9.40
2019-01-15T08:34:43.575Z,9.90
2019-01-15T08:35:43.565Z,9.10
2019-01-15T08:36:43.559Z,8.20
2019-01-15T08:37:43.541Z,9.40
2019-01-15T08:38:43.533Z,7.90
2019-01-15T08:39:43.523Z,9.20
2019-01-15T08:40:43.512Z,7.50
2019-01-15T08:41:43.505Z,8.30
2019-01-15T08:42:43.490Z,7.80
2019-01-15T08:43:43.487Z,10.50
2019-01-15T08:44:43.472Z,6.50
2019-01-15T08:45:43.457Z,6.70
2019-01-15T08:46:43.449Z,7.70
2019-01-15T08:47:43.441Z,8.40
2019-01-15T08:48:43.432Z,7.70
2019-01-15T08:49:43.419Z,10.00
2019-01-15T08:50:43.409Z,8.00
2019-01-15T08:51:43.400Z,6.20
2019-01-15T08:52:43.392Z,9.80
2019-01-15T08:53:43.381Z,9.50
2019-01-15T08:54:43.378Z,6.80
2019-01-15T08:55:43.359Z,9.00
2019-01-15T08:56:43.352Z,8.10
2019-01-15T08:57:43.339Z,5.70
2019-01-15T08:58:43.330Z,10.20
2019-01-15T08:59:43.321Z,10.20
2019-01-15T09:00:43.308Z,7.70
2019-01-15T09:01:43.297Z,8.40
2019-01-15T09:02:43.291Z,9.60
2019-01-15T09:03:43.278Z,7.50
2019-01-15T09:04:43.270Z,9.80
2019-01-15T09:05:43.258Z,6.90
2019-01-15T09:06:43.249Z,7.40
2019-01-15T09:07:43.238Z,9.30
2019-01-15T09:08:43.229Z,7.00
2019-01-15T09:09:43.213Z,8.20
2019-01-15T09:10:43.206Z,9.00
2019-01-15T09:11:43.198Z,10.10
2019-01-15T09:12:43.198Z,11.20
2019-01-15T09:13:43.181Z,7.80
2019-01-15T09:14:43.169Z,9.40
2019-01-15T09:15:43.160Z,10.00
2019-01-15T09:16:43.148Z,8.60
2019-01-15T09:17:43.137Z,10.70
2019-01-15T09:18:43.128Z,7.60
2019-01-15T09:19:43.119Z,8.70
2019-01-15T09:20:43.109Z,7.70
2019-01-15T09:21:43.099Z,6.00
2019-01-15T09:22:43.086Z,8.20
2019-01-15T09:23:43.077Z,8.90
2019-01-15T09:24:43.066Z,6.80
2019-01-15T09:25:43.064Z,8.50
2019-01-15T09:26:43.046Z,8.60
2019-01-15T09:27:43.036Z,8.20
2019-01-15T09:28:43.026Z,9.60
2019-01-15T09:29:43.017Z,8.00
2019-01-15T09:30:43.012Z,9.10
2019-01-15T09:31:43.005Z,7.20
2019-01-15T09:32:42.986Z,7.10
2019-01-15T09:33:42.969Z,8.00
2019-01-15T09:34:42.969Z,10.00
2019-01-15T09:35:42.958Z,7.40
2019-01-15T09:36:42.948Z,10.20
2019-01-15T09:37:42.943Z,9.80
2019-01-15T09:38:42.926Z,7.20
2019-01-15T09:39:42.913Z,7.00
2019-01-15T09:40:42.906Z,6.50
2019-01-15T09:41:42.894Z,7.90
2019-01-15T09:42:42.907Z,8.20
2019-01-15T09:43:42.877Z,7.90
2019-01-15T09:44:42.876Z,8.70
2019-01-15T09:45:42.861Z,9.50
2019-01-15T09:46:42.853Z,7.40
2019-01-15T09:47:42.830Z,8.30
2019-01-15T09:48:42.827Z,9.00
2019-01-15T09:49:42.813Z,10.00
2019-01-15T09:50:42.805Z,9.20
2019-01-15T09:51:42.795Z,8.30
2019-01-15T09:52:42.783Z,8.60
2019-01-15T09:53:42.773Z,7.30
2019-01-15T09:54:42.764Z,8.10
2019-01-15T09:55:42.754Z,6.70
2019-01-15T09:56:42.747Z,7.40
2019-01-15T09:57:42.737Z,7.70
2019-01-15T09:58:42.721Z,9.70
2019-01-15T09:59:42.718Z,9.50
2019-01-15T10:00:42.705Z,8.30
2019-01-15T10:01:42.695Z,9.10
2019-01-15T10:02:42.685Z,11.40
2019-01-15T10:03:42.677Z,9.80
2019-01-15T10:04:42.718Z,9.40
2019-01-15T10:05:42.657Z,10.80
2019-01-15T10:06:42.646Z,9.80
2019-01-15T10:07:42.636Z,9.00
2019-01-15T10:08:42.632Z,9.50
2019-01-15T10:09:42.614Z,9.20
2019-01-15T10:10:42.606Z,9.50
2019-01-15T10:11:42.593Z,8.80
2019-01-15T10:12:42.588Z,9.60
2019-01-15T10:13:42.580Z,10.90
2019-01-15T10:14:42.571Z,10.10
2019-01-15T10:15:42.556Z,7.30
2019-01-15T10:16:42.559Z,7.90
2019-01-15T10:17:42.538Z,8.10
2019-01-15T10:18:42.529Z,9.80
2019-01-15T10:19:42.519Z,8.90
2019-01-15T10:20:42.509Z,9.30
2019-01-15T10:21:42.499Z,9.30
2019-01-15T10:22:42.492Z,8.90
2019-01-15T10:23:42.481Z,10.60
2019-01-15T10:24:42.470Z,8.30
2019-01-15T10:25:42.591Z,10.20
2019-01-15T10:26:42.455Z,10.00
2019-01-15T10:27:42.443Z,9.70
2019-01-15T10:28:42.434Z,9.30
2019-01-15T10:29:42.425Z,7.00
2019-01-15T10:30:42.413Z,8.50
2019-01-15T10:31:42.407Z,8.30
2019-01-15T10:32:42.396Z,6.40
2019-01-15T10:33:42.636Z,8.60
2019-01-15T10:34:42.374Z,9.20
2019-01-15T10:35:42.362Z,8.60
2019-01-15T10:36:42.357Z,8.70
2019-01-15T10:37:42.347Z,7.40
2019-01-15T10:38:42.336Z,11.40
2019-01-15T10:39:42.334Z,8.80
2019-01-15T10:40:42.320Z,9.30
2019-01-15T10:41:42.309Z,11.20
2019-01-15T10:42:42.299Z,8.00
2019-01-15T10:43:42.292Z,7.70
2019-01-15T10:44:48.565Z,10.50
2019-01-15T10:45:42.272Z,9.40
2019-01-15T10:46:42.263Z,9.10
2019-01-15T10:47:42.254Z,8.60
2019-01-15T10:48:42.279Z,11.40
2019-01-15T10:49:42.234Z,10.30
2019-01-15T10:50:42.225Z,8.10
2019-01-15T10:51:42.218Z,7.60
2019-01-15T10:52:42.207Z,9.20
2019-01-15T10:53:42.200Z,8.10
2019-01-15T10:54:42.184Z,7.80
2019-01-15T10:55:42.180Z,8.60
2019-01-15T10:56:42.170Z,8.70
2019-01-15T10:57:42.159Z,9.10
2019-01-15T10:58:42.151Z,9.70
2019-01-15T10:59:42.141Z,8.20
2019-01-15T11:00:42.128Z,6.40
2019-01-15T11:01:42.121Z,12.20
2019-01-15T11:02:42.116Z,7.50
2019-01-15T11:03:42.103Z,9.20
2019-01-15T11:04:42.113Z,8.10
2019-01-15T11:05:42.084Z,8.50
2019-01-15T11:06:42.074Z,11.00
2019-01-15T11:07:42.069Z,8.80
2019-01-15T11:08:42.059Z,9.50
2019-01-15T11:09:42.050Z,9.10
2019-01-15T11:10:42.036Z,7.70
2019-01-15T11:11:42.031Z,8.80
2019-01-15T11:12:42.021Z,8.50
2019-01-15T11:13:42.012Z,7.60
2019-01-15T11:14:42.000Z,7.20
2019-01-15T11:15:43.401Z,7.80
2019-01-15T11:16:41.985Z,8.50
2019-01-15T11:17:41.967Z,9.80
2019-01-15T11:18:42.587Z,10.30
2019-01-15T11:19:41.969Z,7.20
2019-01-15T11:20:41.949Z,6.70
2019-01-15T11:21:41.948Z,8.80
2019-01-15T11:22:41.929Z,7.50
2019-01-15T11:23:41.919Z,7.40
2019-01-15T11:24:41.908Z,9.30
2019-01-15T11:25:41.902Z,7.60
2019-01-15T11:26:41.892Z,8.50
2019-01-15T11:27:41.882Z,8.60
2019-01-15T11:28:41.875Z,10.40
2019-01-15T11:29:41.864Z,8.20
2019-01-15T11:30:41.853Z,8.50
2019-01-15T11:31:41.844Z,7.50
2019-01-15T11:32:41.843Z,9.00
2019-01-15T11:33:41.823Z,8.70
2019-01-15T11:34:41.816Z,9.50
2019-01-15T11:35:41.810Z,8.30
2019-01-15T11:36:41.801Z,6.00
2019-01-15T11:37:41.791Z,10.00
2019-01-15T11:38:41.780Z,9.50
2019-01-15T11:39:41.771Z,6.70
2019-01-15T11:40:41.773Z,6.90
2019-01-15T11:41:41.754Z,7.20
2019-01-15T11:42:41.745Z,9.50
2019-01-15T11:43:41.735Z,8.70
2019-01-15T11:44:41.725Z,7.80
2019-01-15T11:45:41.719Z,8.90
2019-01-15T11:46:41.738Z,8.80
2019-01-15T11:47:41.700Z,10.90
2019-01-15T11:48:41.688Z,9.90
2019-01-15T11:49:41.679Z,8.50
2019-01-15T11:50:41.673Z,9.90
2019-01-15T11:51:41.663Z,10.80
2019-01-15T11:52:41.653Z,9.30
2019-01-15T11:53:41.643Z,12.30
2019-01-15T11:54:41.636Z,10.60
2019-01-15T11:55:41.627Z,11.80
2019-01-15T11:56:41.618Z,10.10
2019-01-15T11:57:41.612Z,10.30
2019-01-15T11:58:41.598Z,10.90
2019-01-15T11:59:41.589Z,11.90
2019-01-15T12:00:41.582Z,10.40
2019-01-15T12:01:41.573Z,10.80
2019-01-15T12:02:41.562Z,9.90
2019-01-15T12:03:41.554Z,10.40
2019-01-15T12:04:41.546Z,10.50
2019-01-15T12:05:41.536Z,10.30
2019-01-15T12:06:41.528Z,8.50
2019-01-15T12:07:41.516Z,10.50
2019-01-15T12:08:41.514Z,11.60
2019-01-15T12:09:41.491Z,10.50
2019-01-15T12:10:41.487Z,10.30
2019-01-15T12:11:41.483Z,10.60
2019-01-15T12:12:41.475Z,8.90
2019-01-15T12:13:41.465Z,12.30
2019-01-15T12:14:41.457Z,11.10
2019-01-15T12:15:41.449Z,11.20
2019-01-15T12:16:41.442Z,11.40
2019-01-15T12:17:41.431Z,11.20
2019-01-15T12:18:41.420Z,10.20
2019-01-15T12:19:41.417Z,10.70
2019-01-15T12:20:41.406Z,11.70
2019-01-15T12:21:41.393Z,8.90
2019-01-15T12:22:41.385Z,11.20
2019-01-15T12:23:41.375Z,11.00
2019-01-15T12:24:41.368Z,10.30
2019-01-15T12:25:41.356Z,10.90
2019-01-15T12:26:41.352Z,8.80
2019-01-15T12:27:41.341Z,12.50
2019-01-15T12:28:41.330Z,11.20
2019-01-15T12:29:41.326Z,11.30
2019-01-15T12:30:41.316Z,10.00
2019-01-15T12:31:41.307Z,12.10
2019-01-15T12:32:41.297Z,8.80
2019-01-15T12:33:41.291Z,12.80
2019-01-15T12:34:41.278Z,11.90
2019-01-15T12:35:41.270Z,11.70
2019-01-15T12:36:41.261Z,13.30
2019-01-15T12:37:41.251Z,11.00
2019-01-15T12:38:41.243Z,10.10
2019-01-15T12:39:41.237Z,14.60
2019-01-15T12:40:41.235Z,12.30
2019-01-15T12:41:41.220Z,10.00
2019-01-15T12:42:41.209Z,11.70
2019-01-15T12:43:41.203Z,12.50
2019-01-15T12:44:41.192Z,12.90
2019-01-15T12:45:41.181Z,12.20
2019-01-15T12:46:41.176Z,12.10
2019-01-15T12:47:41.165Z,13.30
2019-01-15T12:48:41.159Z,10.80
2019-01-15T12:49:41.152Z,11.40
2019-01-15T12:50:41.138Z,12.40
2019-01-15T12:51:41.128Z,13.30
2019-01-15T12:52:41.121Z,12.70
2019-01-15T12:53:41.113Z,15.50
2019-01-15T12:54:41.102Z,14.90
2019-01-15T12:55:41.095Z,14.10
2019-01-15T12:56:41.088Z,11.70
2019-01-15T12:57:41.076Z,13.20
2019-01-15T12:58:41.067Z,10.60
2019-01-15T12:59:41.061Z,10.60